Hlavní strana
METAR-TAF:

METAR-TAF

Letiště :

Machala, Ekvádor

zeměpisná šířka: 03-26-07S, zeměpisná délka: 079-58-40W, výška: 52 m

Aktuální stav počasí

Zpráva byla vytvořena před 4 hodinami a 29 minutami, v 23:00 UTC
Jihojihovýchodní vítr 4 kt
Teplota 26°C
Vlhkost vzduchu 84%
Tlak 1010 hPa
Viditelnost 10 km a více
Skoro jasno ve výšce 1600 ft
Zataženo ve výšce 7000 ft

METAR: SERO 072300Z 15004KT 9999 FEW016 OVC070 26/23 Q1010

Čas: 22:29 (03:29 UTC)


TAF: chybějící

Stav a předpovědi počasí z více než 4 000 letišť (zprávy METAR a TAF).

Červené a žluté tečky na mapě představují dostupné meteorologické stanice.

Když kurzor umístíte na tečku, zobrazí se název stanice.

Pak kliknutím zobrazíte stav a předpověď počasí.

Chcete-li změnit mapu, kliknutím na zelené tlačítko se znaménkem +mapu přiblížíte, kliknutím na zelené tlačítko se znaménkem – mapu oddálíte a kliknutím na zelené šipky přejdete na sousední mapy.


METAR-TAF: